Aroma Park, Illinois
Current Conditions -  °F | °C
As of 8:15 PM on Thursday 20 Nov 2014 (Local Time) from KIKK Reporting Station
Clear Clear  
Wind Chill: -12°   Ceiling: Unl
Heat Index: -7°   Visibility: 10mi
Dew Point: -13°   Wind: 7mph
Humidity: 61%   Direction: 270°W
Pressure: 30.25"   Gusts: NA
Location:  41.08°N, 87.81°W
Report Text: KIKK 210215Z AUTO 27006KT 10SM CLR M07/M13 A3025 RMK AO2 T10671132
Loading
Personal Weather Stations






























Interactive Weather Map New forecast layout! Learn more

10-Day Weather Forecast

Advertisements
Track Severe Weather on mobile